Time;durP1;ratioP1;P1;durP2;ratioP2;P2;SDS_P1;SDS_P2;PMS_P1;PMS_P2;Temp;Humidity;BMP_temperature;BMP_pressure;BME280_temperature;BME280_humidity;BME280_pressure;Samples;Min_cycle;Max_cycle;Signal;HPM_P1;HPM_P2
2023/07/23 00:02:12;;;;;;;8.93;4.80;;;16.00;99.90;;;;;;6130448;23;20189;-85
2023/07/23 00:04:39;;;;;;;8.40;4.90;;;16.00;99.90;;;;;;6104269;23;20169;-86
2023/07/23 00:07:06;;;;;;;8.20;5.13;;;16.00;99.90;;;;;;6130421;23;20185;-85
2023/07/23 00:09:33;;;;;;;6.07;4.70;;;15.90;99.90;;;;;;6131023;23;20165;-86
2023/07/23 00:12:01;;;;;;;7.60;4.83;;;15.90;99.90;;;;;;6105408;23;20185;-86
2023/07/23 00:14:28;;;;;;;6.60;4.53;;;15.90;99.90;;;;;;6083183;23;20173;-86
2023/07/23 00:16:55;;;;;;;8.50;5.23;;;15.80;99.90;;;;;;6106967;23;20193;-86
2023/07/23 00:19:23;;;;;;;9.00;5.20;;;15.80;99.90;;;;;;6107078;23;20180;-86
2023/07/23 00:21:50;;;;;;;10.37;4.80;;;15.80;99.90;;;;;;6082293;23;20235;-86
2023/07/23 00:24:19;;;;;;;6.80;4.57;;;15.70;99.90;;;;;;6106087;23;20176;-86
2023/07/23 00:26:46;;;;;;;8.17;4.13;;;15.70;99.90;;;;;;6082978;23;20260;-85
2023/07/23 00:29:13;;;;;;;7.80;4.37;;;15.70;99.90;;;;;;6106364;23;20253;-86
2023/07/23 00:31:40;;;;;;;6.37;4.10;;;15.60;99.90;;;;;;6106944;23;20203;-86
2023/07/23 00:34:09;;;;;;;6.53;4.30;;;15.60;99.90;;;;;;6107207;23;20169;-86
2023/07/23 00:36:36;;;;;;;5.83;4.23;;;15.50;99.90;;;;;;6132958;23;20192;-86
2023/07/23 00:39:05;;;;;;;6.53;4.30;;;15.50;99.90;;;;;;6082972;23;20172;-86
2023/07/23 00:41:32;;;;;;;6.33;4.10;;;15.40;99.90;;;;;;6106861;23;20224;-85
2023/07/23 00:44:00;;;;;;;8.43;4.33;;;15.40;99.90;;;;;;6106302;23;20178;-87
2023/07/23 00:46:27;;;;;;;7.40;4.53;;;15.30;99.90;;;;;;6106141;23;20216;-85
2023/07/23 00:48:55;;;;;;;5.77;4.17;;;15.30;99.90;;;;;;6106211;23;20456;-86
2023/07/23 00:51:22;;;;;;;6.47;4.30;;;15.30;99.90;;;;;;6082397;23;20169;-86
2023/07/23 00:53:50;;;;;;;7.00;4.50;;;15.30;99.90;;;;;;6082157;23;20229;-86
2023/07/23 00:56:17;;;;;;;6.80;4.37;;;15.20;99.90;;;;;;6106242;23;20172;-86
2023/07/23 00:58:46;;;;;;;8.03;4.50;;;15.20;99.90;;;;;;6105942;23;20205;-86
2023/07/23 01:01:14;;;;;;;7.43;4.27;;;15.30;99.90;;;;;;6106105;23;20177;-86
2023/07/23 01:03:41;;;;;;;8.87;4.20;;;15.20;99.90;;;;;;6105512;23;20207;-86
2023/07/23 01:06:10;;;;;;;6.00;4.10;;;15.20;99.90;;;;;;6106481;23;20256;-86
2023/07/23 01:08:39;;;;;;;6.03;4.40;;;15.30;99.90;;;;;;6131832;23;20532;-84
2023/07/23 01:11:06;;;;;;;6.17;4.40;;;15.20;99.90;;;;;;6131836;23;20173;-86
2023/07/23 01:13:38;;;;;;;6.30;4.17;;;15.20;99.90;;;;;;6106352;23;20172;-86
2023/07/23 01:16:07;;;;;;;6.57;4.13;;;15.20;99.90;;;;;;6131694;23;20476;-86
2023/07/23 01:18:37;;;;;;;8.20;4.50;;;15.30;99.90;;;;;;6131536;23;20491;-85
2023/07/23 01:21:04;;;;;;;10.67;4.47;;;15.20;99.90;;;;;;6106087;23;20245;-86
2023/07/23 01:23:32;;;;;;;6.37;4.30;;;15.10;99.90;;;;;;6106362;23;20240;-86
2023/07/23 01:25:59;;;;;;;5.27;4.00;;;15.20;99.90;;;;;;6106005;23;20169;-85
2023/07/23 01:28:26;;;;;;;6.37;4.50;;;15.20;99.90;;;;;;6105803;23;20199;-86
2023/07/23 01:30:57;;;;;;;7.17;4.30;;;15.10;99.90;;;;;;6106466;23;20176;-85
2023/07/23 01:33:25;;;;;;;5.97;3.80;;;15.10;99.90;;;;;;6131824;23;20189;-86
2023/07/23 01:35:56;;;;;;;6.20;4.27;;;15.00;99.90;;;;;;6106035;23;20169;-84
2023/07/23 01:38:24;;;;;;;5.63;4.20;;;15.10;99.90;;;;;;6106110;23;20189;-86
2023/07/23 01:40:52;;;;;;;5.90;3.97;;;15.00;99.90;;;;;;6106312;23;20173;-86
2023/07/23 01:43:22;;;;;;;5.53;3.90;;;15.00;99.90;;;;;;6082187;23;20635;-85
2023/07/23 01:45:49;;;;;;;7.63;4.03;;;15.00;99.90;;;;;;6106367;23;20478;-86
2023/07/23 01:48:16;;;;;;;7.00;4.10;;;14.90;99.90;;;;;;6105869;23;20200;-86
2023/07/23 01:50:44;;;;;;;6.13;4.00;;;14.90;99.90;;;;;;6105540;23;20247;-85
2023/07/23 01:53:11;;;;;;;7.13;4.00;;;14.90;99.90;;;;;;6106428;23;20197;-86
2023/07/23 01:55:38;;;;;;;5.97;4.00;;;15.00;99.90;;;;;;6082118;23;20435;-85
2023/07/23 01:58:05;;;;;;;6.23;3.93;;;14.80;99.90;;;;;;6106741;23;20566;-85
2023/07/23 02:00:32;;;;;;;5.73;4.03;;;14.90;99.90;;;;;;6105687;23;20165;-85
2023/07/23 02:02:59;;;;;;;5.57;3.83;;;14.80;99.90;;;;;;6105030;23;20196;-85
2023/07/23 02:05:26;;;;;;;6.33;4.20;;;14.80;99.90;;;;;;6105517;23;20196;-85
2023/07/23 02:07:54;;;;;;;7.43;4.23;;;14.70;99.90;;;;;;6082419;23;20220;-86
2023/07/23 02:10:21;;;;;;;5.77;4.13;;;14.70;99.90;;;;;;6105576;23;20165;-86
2023/07/23 02:12:48;;;;;;;9.93;4.20;;;14.70;99.90;;;;;;6081168;23;20279;-85
2023/07/23 02:15:15;;;;;;;6.17;4.10;;;14.70;99.90;;;;;;6105341;23;20173;-86
2023/07/23 02:17:42;;;;;;;6.03;3.83;;;14.70;99.90;;;;;;6105719;23;20197;-86
2023/07/23 02:20:10;;;;;;;81.13;18.17;;;14.70;99.90;;;;;;6105914;23;20177;-85
2023/07/23 02:22:37;;;;;;;6.87;4.43;;;14.70;99.90;;;;;;6105839;23;20189;-85
2023/07/23 02:25:04;;;;;;;5.70;3.97;;;14.70;99.90;;;;;;6131470;23;20169;-85
2023/07/23 02:27:33;;;;;;;5.70;4.00;;;14.70;99.90;;;;;;6105613;23;20564;-85
2023/07/23 02:30:00;;;;;;;6.43;3.90;;;14.70;99.90;;;;;;6105560;23;20169;-83
2023/07/23 02:32:27;;;;;;;5.90;3.90;;;14.60;99.90;;;;;;6130655;23;20231;-85
2023/07/23 02:34:54;;;;;;;8.83;4.00;;;14.60;99.90;;;;;;6081403;23;20541;-86
2023/07/23 02:37:21;;;;;;;5.00;3.70;;;14.50;99.90;;;;;;6130787;23;20433;-86
2023/07/23 02:39:48;;;;;;;9.13;4.10;;;14.50;99.90;;;;;;6131248;23;20165;-86
2023/07/23 02:42:15;;;;;;;8.37;4.40;;;14.50;99.90;;;;;;6105835;23;20493;-86
2023/07/23 02:44:42;;;;;;;6.77;4.17;;;14.40;99.90;;;;;;6081816;23;20469;-86
2023/07/23 02:47:09;;;;;;;7.23;4.33;;;14.50;99.90;;;;;;6105205;23;20248;-86
2023/07/23 02:49:37;;;;;;;7.30;4.60;;;14.30;99.90;;;;;;6105242;23;20168;-85
2023/07/23 02:52:05;;;;;;;5.93;4.13;;;14.40;99.90;;;;;;6105208;23;20191;-84
2023/07/23 02:54:32;;;;;;;6.07;4.13;;;14.30;99.90;;;;;;6080147;23;20176;-85
2023/07/23 02:57:00;;;;;;;10.50;4.50;;;14.30;99.90;;;;;;6081116;23;20200;-84
2023/07/23 02:59:26;;;;;;;6.10;4.20;;;14.20;99.90;;;;;;6104492;23;20196;-84
2023/07/23 03:01:53;;;;;;;7.70;3.63;;;14.20;99.90;;;;;;6104697;23;20498;-84
2023/07/23 03:04:26;;;;;;;5.43;4.30;;;14.10;99.90;;;;;;6104735;23;20193;-84
2023/07/23 03:06:54;;;;;;;7.23;4.47;;;14.10;99.90;;;;;;6104694;23;20232;-85
2023/07/23 03:09:21;;;;;;;6.63;4.33;;;14.10;99.90;;;;;;6105065;23;20640;-85
2023/07/23 03:11:48;;;;;;;7.07;4.17;;;14.10;99.90;;;;;;6081307;23;20199;-84
2023/07/23 03:14:15;;;;;;;6.43;4.07;;;14.10;99.90;;;;;;6081172;23;20231;-85
2023/07/23 03:16:42;;;;;;;8.67;4.30;;;14.10;99.90;;;;;;6104491;23;20192;-85
2023/07/23 03:19:09;;;;;;;6.10;3.93;;;14.10;99.90;;;;;;6081810;23;20599;-86
2023/07/23 03:21:36;;;;;;;6.20;4.37;;;14.10;99.90;;;;;;6130756;23;20189;-86
2023/07/23 03:24:03;;;;;;;6.03;4.00;;;14.10;99.90;;;;;;6105473;23;20214;-85
2023/07/23 03:26:30;;;;;;;6.80;4.50;;;14.10;99.90;;;;;;6104843;23;20188;-86
2023/07/23 03:28:57;;;;;;;6.10;4.23;;;14.30;99.90;;;;;;6105193;23;20173;-85
2023/07/23 03:31:24;;;;;;;7.97;4.30;;;14.20;99.90;;;;;;6081176;23;20195;-86
2023/07/23 03:33:52;;;;;;;5.53;3.90;;;14.20;99.90;;;;;;6105004;23;20550;-85
2023/07/23 03:36:19;;;;;;;9.90;4.50;;;14.20;99.90;;;;;;6104694;23;20188;-85
2023/07/23 03:38:46;;;;;;;6.00;4.10;;;14.10;99.90;;;;;;6131167;23;20321;-85
2023/07/23 03:41:13;;;;;;;7.93;4.40;;;14.20;99.90;;;;;;6105058;23;20590;-86
2023/07/23 03:43:40;;;;;;;8.00;4.37;;;14.30;99.90;;;;;;6131453;23;20580;-86
2023/07/23 03:46:08;;;;;;;6.30;4.30;;;14.30;99.90;;;;;;6131493;23;20244;-88
2023/07/23 03:48:35;;;;;;;8.37;4.20;;;14.20;99.90;;;;;;6105492;23;20177;-87
2023/07/23 03:51:02;;;;;;;5.10;3.80;;;14.30;99.90;;;;;;6131010;23;20164;-87
2023/07/23 03:53:29;;;;;;;7.50;4.37;;;14.40;99.90;;;;;;6105417;23;20165;-86
2023/07/23 03:55:56;;;;;;;7.43;4.10;;;14.40;99.90;;;;;;6130119;23;20187;-87
2023/07/23 03:58:23;;;;;;;5.80;4.27;;;14.40;99.90;;;;;;6130719;23;20202;-87
2023/07/23 04:00:50;;;;;;;8.30;4.70;;;14.50;99.90;;;;;;6105158;23;20183;-87
2023/07/23 04:03:17;;;;;;;7.43;4.73;;;14.70;99.90;;;;;;6105187;23;20196;-87
2023/07/23 04:05:45;;;;;;;5.70;4.13;;;14.60;99.90;;;;;;6131294;23;20236;-87
2023/07/23 04:08:12;;;;;;;7.17;4.57;;;14.70;99.90;;;;;;6131003;23;20185;-86
2023/07/23 04:10:39;;;;;;;6.20;4.50;;;14.70;99.90;;;;;;6105265;23;20622;-86
2023/07/23 04:13:06;;;;;;;6.77;4.40;;;14.80;99.90;;;;;;6105513;23;20193;-85
2023/07/23 04:15:37;;;;;;;6.13;4.67;;;14.80;99.90;;;;;;6130295;23;20176;-85
2023/07/23 04:18:17;;;;;;;9.47;4.80;;;14.90;99.90;;;;;;6104666;23;20193;-87
2023/07/23 04:20:44;;;;;;;8.23;4.80;;;15.00;99.90;;;;;;6129936;23;20165;-86
2023/07/23 04:23:14;;;;;;;5.87;4.27;;;15.00;99.90;;;;;;6104509;23;20259;-87
2023/07/23 04:25:41;;;;;;;7.07;4.47;;;15.10;99.90;;;;;;6130337;23;20166;-86
2023/07/23 04:28:08;;;;;;;8.17;4.33;;;15.10;99.90;;;;;;6104862;23;20177;-86
2023/07/23 04:30:36;;;;;;;6.90;4.70;;;15.20;99.90;;;;;;6130097;23;20245;-86
2023/07/23 04:33:03;;;;;;;7.27;4.53;;;15.30;99.90;;;;;;6081225;23;20208;-86
2023/07/23 04:35:30;;;;;;;7.03;4.63;;;15.20;99.90;;;;;;6080973;23;20231;-87
2023/07/23 04:37:57;;;;;;;7.07;4.13;;;15.30;99.90;;;;;;6104902;23;20244;-86
2023/07/23 04:40:24;;;;;;;10.13;4.80;;;15.30;99.90;;;;;;6080395;23;20175;-86
2023/07/23 04:42:51;;;;;;;7.53;4.60;;;15.30;99.90;;;;;;6081364;23;20216;-86
2023/07/23 04:45:18;;;;;;;7.00;4.87;;;15.40;99.90;;;;;;6104795;23;20169;-86
2023/07/23 04:47:45;;;;;;;7.70;5.07;;;15.40;99.90;;;;;;6080245;23;20192;-87
2023/07/23 04:50:12;;;;;;;6.47;4.60;;;15.40;99.90;;;;;;6080874;23;20485;-87
2023/07/23 04:52:40;;;;;;;7.20;4.90;;;15.50;99.90;;;;;;6130124;23;20178;-86
2023/07/23 04:55:08;;;;;;;8.07;4.50;;;15.50;99.90;;;;;;6080802;23;20169;-87
2023/07/23 04:57:35;;;;;;;8.37;4.70;;;15.60;99.90;;;;;;6080554;23;20185;-87
2023/07/23 05:00:06;;;;;;;10.63;4.80;;;15.70;99.90;;;;;;6105416;23;20608;-86
2023/07/23 05:02:33;;;;;;;9.10;4.80;;;15.70;99.90;;;;;;6081819;23;20648;-86
2023/07/23 05:05:00;;;;;;;12.07;4.90;;;15.90;99.90;;;;;;6106380;23;20474;-86
2023/07/23 05:07:27;;;;;;;8.47;4.17;;;16.00;99.90;;;;;;6106705;23;20193;-86
2023/07/23 05:09:54;;;;;;;7.87;4.63;;;16.10;99.90;;;;;;6106841;23;20169;-87
2023/07/23 05:12:22;;;;;;;9.50;4.20;;;16.20;99.90;;;;;;6106836;23;20204;-87
2023/07/23 05:14:49;;;;;;;6.73;4.30;;;16.40;99.90;;;;;;6106287;23;20208;-87
2023/07/23 05:17:16;;;;;;;8.10;4.57;;;16.60;99.90;;;;;;6131774;23;20197;-87
2023/07/23 05:19:43;;;;;;;5.93;4.27;;;16.90;99.90;;;;;;6106550;23;20212;-86
2023/07/23 05:22:10;;;;;;;7.07;4.30;;;16.90;99.90;;;;;;6105962;23;20663;-88
2023/07/23 05:24:37;;;;;;;5.40;3.80;;;17.10;99.90;;;;;;6131496;23;20442;-87
2023/07/23 05:27:05;;;;;;;6.77;4.10;;;17.20;99.90;;;;;;6082535;23;20189;-87
2023/07/23 05:29:32;;;;;;;7.53;4.10;;;17.40;99.90;;;;;;6082730;23;20412;-86
2023/07/23 05:31:59;;;;;;;6.70;4.23;;;17.50;99.90;;;;;;6131856;23;20196;-87
2023/07/23 05:34:26;;;;;;;7.20;3.60;;;17.60;99.90;;;;;;6131962;23;20264;-86
2023/07/23 05:36:53;;;;;;;6.47;3.90;;;17.70;99.90;;;;;;6106022;23;20193;-87
2023/07/23 05:39:20;;;;;;;6.23;3.80;;;17.70;99.90;;;;;;6106111;23;20173;-87
2023/07/23 05:41:47;;;;;;;9.80;4.23;;;17.80;99.90;;;;;;6105663;23;20232;-86
2023/07/23 05:44:14;;;;;;;5.13;3.50;;;17.90;99.90;;;;;;6105940;23;20203;-87
2023/07/23 05:46:41;;;;;;;7.30;4.20;;;17.90;99.90;;;;;;6105863;23;20276;-87
2023/07/23 05:49:08;;;;;;;9.17;4.00;;;18.00;99.90;;;;;;6106213;23;20172;-87
2023/07/23 05:51:35;;;;;;;5.10;3.63;;;18.20;99.90;;;;;;6105852;23;20189;-87
2023/07/23 05:54:02;;;;;;;6.07;3.83;;;18.30;99.90;;;;;;6105799;23;20192;-87
2023/07/23 05:56:31;;;;;;;6.10;3.97;;;18.30;99.90;;;;;;6082239;23;20193;-88
2023/07/23 05:58:58;;;;;;;6.83;3.87;;;18.30;99.90;;;;;;6105498;23;20266;-87
2023/07/23 06:01:25;;;;;;;5.83;3.70;;;18.40;99.90;;;;;;6130888;23;20243;-87
2023/07/23 06:03:53;;;;;;;7.43;4.07;;;18.50;99.90;;;;;;6105219;23;20244;-87
2023/07/23 06:06:22;;;;;;;9.50;3.77;;;18.50;99.90;;;;;;6081933;23;20183;-87
2023/07/23 06:08:49;;;;;;;7.97;4.10;;;18.50;99.90;;;;;;6105384;23;20172;-86
2023/07/23 06:11:17;;;;;;;8.43;3.73;;;18.50;99.90;;;;;;6104885;23;20200;-86
2023/07/23 06:13:44;;;;;;;7.50;4.10;;;18.50;99.90;;;;;;6131723;23;20244;-87
2023/07/23 06:16:11;;;;;;;5.20;3.73;;;18.50;99.90;;;;;;6105399;23;20192;-87
2023/07/23 06:18:38;;;;;;;7.97;4.10;;;18.60;99.90;;;;;;6082049;23;20208;-87
2023/07/23 06:21:05;;;;;;;7.60;4.23;;;18.60;99.90;;;;;;6081634;23;20491;-87
2023/07/23 06:23:34;;;;;;;7.20;4.13;;;18.80;99.90;;;;;;6130755;23;20320;-87
2023/07/23 06:26:01;;;;;;;6.87;3.80;;;18.80;99.90;;;;;;6106019;23;20165;-87
2023/07/23 06:28:28;;;;;;;8.13;3.70;;;18.80;99.90;;;;;;6082210;23;20216;-87
2023/07/23 06:30:55;;;;;;;6.10;4.10;;;18.90;99.90;;;;;;6105744;23;20235;-87
2023/07/23 06:33:23;;;;;;;5.60;3.70;;;18.90;99.90;;;;;;6105499;23;20193;-88
2023/07/23 06:35:50;;;;;;;7.17;4.37;;;19.00;99.90;;;;;;6105788;23;20249;-87
2023/07/23 06:38:17;;;;;;;7.73;3.83;;;19.10;99.90;;;;;;6131194;23;20181;-87
2023/07/23 06:40:48;;;;;;;7.17;4.17;;;19.20;99.90;;;;;;6131541;23;20180;-87
2023/07/23 06:43:16;;;;;;;6.70;4.33;;;19.30;99.90;;;;;;6081938;23;20506;-87
2023/07/23 06:45:44;;;;;;;5.47;3.80;;;19.60;99.90;;;;;;6081096;23;20176;-87
2023/07/23 06:48:12;;;;;;;4.50;3.63;;;19.90;99.90;;;;;;6105441;23;20280;-86
2023/07/23 06:50:39;;;;;;;5.57;3.50;;;20.10;99.90;;;;;;6131361;23;20161;-87
2023/07/23 06:53:06;;;;;;;6.23;4.30;;;20.10;99.90;;;;;;6131584;23;20232;-87
2023/07/23 06:55:55;;;;;;;6.30;3.63;;;20.30;99.90;;;;;;6105602;23;20204;-87
2023/07/23 06:58:23;;;;;;;5.53;3.70;;;20.20;99.90;;;;;;6100849;23;20193;-87
2023/07/23 07:00:50;;;;;;;6.20;3.53;;;20.20;99.90;;;;;;6101072;23;20556;-86
2023/07/23 07:03:17;;;;;;;6.27;3.70;;;20.20;99.90;;;;;;6100623;23;20265;-86
2023/07/23 07:05:44;;;;;;;5.97;4.00;;;20.10;99.90;;;;;;6077005;23;20170;-86
2023/07/23 07:08:12;;;;;;;4.87;3.50;;;20.00;99.90;;;;;;6100553;23;20189;-87
2023/07/23 07:10:39;;;;;;;5.80;3.43;;;20.20;99.90;;;;;;6076892;23;20169;-86
2023/07/23 07:13:06;;;;;;;6.03;3.80;;;20.30;99.90;;;;;;6101259;23;20177;-87
2023/07/23 07:15:33;;;;;;;4.73;3.30;;;20.50;99.90;;;;;;6100626;23;20232;-87
2023/07/23 07:18:00;;;;;;;6.37;3.57;;;20.60;99.90;;;;;;6100613;23;20487;-87
2023/07/23 07:20:27;;;;;;;6.73;2.90;;;20.70;99.90;;;;;;6100360;23;20295;-87
2023/07/23 07:22:55;;;;;;;4.10;3.03;;;20.80;99.90;;;;;;6101465;23;20448;-87
2023/07/23 07:25:22;;;;;;;4.63;3.20;;;21.00;99.90;;;;;;6100106;23;20181;-87
2023/07/23 07:27:49;;;;;;;6.93;3.30;;;21.20;99.90;;;;;;6100982;23;20185;-86
2023/07/23 07:30:16;;;;;;;4.77;3.50;;;21.30;99.90;;;;;;6100258;23;20158;-87
2023/07/23 07:32:43;;;;;;;4.90;2.77;;;21.50;99.90;;;;;;6099240;23;20192;-87
2023/07/23 07:35:10;;;;;;;5.40;2.90;;;21.50;99.90;;;;;;6101013;23;20571;-87
2023/07/23 07:37:38;;;;;;;4.90;2.90;;;21.50;99.90;;;;;;6100467;23;20198;-87
2023/07/23 07:40:05;;;;;;;4.73;3.03;;;21.50;99.90;;;;;;6100724;23;20378;-87
2023/07/23 07:42:33;;;;;;;3.90;3.07;;;21.60;99.90;;;;;;6077438;23;20193;-87
2023/07/23 07:45:00;;;;;;;4.83;3.40;;;21.80;99.90;;;;;;6076344;23;20272;-88
2023/07/23 07:47:27;;;;;;;6.20;2.60;;;21.90;99.90;;;;;;6076788;23;20200;-87
2023/07/23 07:49:54;;;;;;;4.77;2.73;;;22.00;99.90;;;;;;6100876;23;20176;-87
2023/07/23 07:52:21;;;;;;;4.27;3.07;;;22.10;99.90;;;;;;6076160;23;20212;-87
2023/07/23 07:54:48;;;;;;;5.70;2.87;;;22.40;99.90;;;;;;6100572;23;20205;-87
2023/07/23 07:57:15;;;;;;;4.50;2.70;;;22.60;99.90;;;;;;6101792;23;20212;-87
2023/07/23 07:59:43;;;;;;;4.57;2.90;;;22.80;99.90;;;;;;6100432;23;20204;-87
2023/07/23 08:02:10;;;;;;;5.88;2.90;;;22.90;99.90;;;;;;6077969;23;20204;-87
2023/07/23 08:04:37;;;;;;;5.80;2.85;;;23.10;99.90;;;;;;6100165;23;20220;-87
2023/07/23 08:07:05;;;;;;;4.50;2.87;;;23.10;99.90;;;;;;6100506;23;20277;-87
2023/07/23 08:09:33;;;;;;;3.88;2.70;;;23.20;99.90;;;;;;6076735;23;20174;-87
2023/07/23 08:12:02;;;;;;;6.03;3.07;;;23.10;98.60;;;;;;6101283;23;20177;-87
2023/07/23 08:14:30;;;;;;;4.77;2.70;;;23.30;98.80;;;;;;6099438;23;20205;-86
2023/07/23 08:16:57;;;;;;;4.85;2.67;;;23.40;98.40;;;;;;6101503;23;20220;-87
2023/07/23 08:19:24;;;;;;;5.47;3.03;;;23.40;97.90;;;;;;6101560;23;20191;-87
2023/07/23 08:21:52;;;;;;;5.20;2.80;;;23.70;98.20;;;;;;6100237;23;20245;-88
2023/07/23 08:24:19;;;;;;;4.43;2.75;;;24.00;96.70;;;;;;6100114;23;20603;-87
2023/07/23 08:26:49;;;;;;;3.37;2.70;;;24.30;95.90;;;;;;6100709;23;20189;-87
2023/07/23 08:29:19;;;;;;;3.70;2.78;;;24.60;95.10;;;;;;6100350;23;20189;-86
2023/07/23 08:31:47;;;;;;;3.65;2.40;;;25.10;94.80;;;;;;6100569;23;20190;-87
2023/07/23 08:34:16;;;;;;;4.03;2.67;;;25.80;93.80;;;;;;6099720;23;20166;-88
2023/07/23 08:36:44;;;;;;;4.75;3.08;;;25.80;92.70;;;;;;6101845;23;20190;-87
2023/07/23 08:39:12;;;;;;;4.93;3.00;;;25.80;91.80;;;;;;6103969;23;20176;-87
2023/07/23 08:41:55;;;;;;;4.50;2.92;;;25.90;91.60;;;;;;6102276;23;20186;-88
2023/07/23 08:45:15;;;;;;;4.25;2.72;;;26.20;90.70;;;;;;6102038;23;20595;-88
2023/07/23 08:47:45;;;;;;;7.90;3.03;;;26.20;89.50;;;;;;6048001;23;20190;-88
2023/07/23 08:50:14;;;;;;;4.47;3.25;;;26.80;88.90;;;;;;6072185;23;20481;-86
2023/07/23 08:52:42;;;;;;;4.10;2.92;;;27.00;88.10;;;;;;6024569;23;20190;-87
2023/07/23 08:55:10;;;;;;;3.70;3.08;;;27.20;87.80;;;;;;6073250;23;20213;-85
2023/07/23 08:57:39;;;;;;;4.40;3.15;;;27.10;86.50;;;;;;6071373;23;20198;-87
2023/07/23 09:00:07;;;;;;;4.00;3.10;;;27.10;86.80;;;;;;6072186;23;20249;-86
2023/07/23 09:02:38;;;;;;;3.90;2.85;;;27.10;86.00;;;;;;6024719;23;20237;-88
2023/07/23 09:05:06;;;;;;;4.15;3.10;;;26.60;86.80;;;;;;6072264;23;20193;-87
2023/07/23 09:07:35;;;;;;;6.05;3.40;;;26.40;88.20;;;;;;6072736;23;20220;-87
2023/07/23 09:10:02;;;;;;;4.03;3.13;;;26.60;88.10;;;;;;6048102;23;20175;-87
2023/07/23 09:12:30;;;;;;;4.13;3.10;;;26.70;86.90;;;;;;5958869;24;20476;-87
2023/07/23 09:15:03;;;;;;;6.75;3.17;;;26.50;85.90;;;;;;5958854;24;20427;-87
2023/07/23 09:17:30;;;;;;;4.00;2.88;;;26.60;85.90;;;;;;5871718;24;20282;-87
2023/07/23 09:19:58;;;;;;;3.63;3.00;;;26.50;85.40;;;;;;5849522;24;20180;-87
2023/07/23 09:22:31;;;;;;;6.03;3.10;;;27.00;86.30;;;;;;5848825;24;20199;-85
2023/07/23 09:25:00;;;;;;;3.75;3.20;;;27.50;85.40;;;;;;5880514;24;20578;-87
2023/07/23 09:27:35;;;;;;;4.45;3.13;;;27.90;82.70;;;;;;5926044;24;20194;-86
2023/07/23 09:30:03;;;;;;;7.78;3.33;;;27.60;83.90;;;;;;5907520;23;20172;-86
2023/07/23 09:32:30;;;;;;;5.78;3.03;;;27.30;82.80;;;;;;6037399;23;20669;-86
2023/07/23 09:35:00;;;;;;;7.03;3.45;;;27.20;83.00;;;;;;5987538;23;20181;-87
2023/07/23 09:37:28;;;;;;;6.13;3.60;;;27.10;83.20;;;;;;6102977;23;20221;-87
2023/07/23 09:39:56;;;;;;;4.63;3.50;;;27.40;82.90;;;;;;6103307;23;20170;-87
2023/07/23 09:42:24;;;;;;;5.38;3.90;;;27.30;81.40;;;;;;6101988;23;20194;-87
2023/07/23 09:44:51;;;;;;;5.57;3.55;;;26.90;81.50;;;;;;6101423;23;20747;-87
2023/07/23 09:47:25;;;;;;;5.63;3.58;;;26.70;82.70;;;;;;6076960;23;20246;-87
2023/07/23 09:49:53;;;;;;;4.85;3.35;;;26.20;84.70;;;;;;6078142;23;20411;-86
2023/07/23 09:52:32;;;;;;;4.38;3.55;;;26.30;85.30;;;;;;6101933;23;20193;-87
2023/07/23 09:55:00;;;;;;;5.18;3.58;;;26.80;83.80;;;;;;6103299;23;20160;-87
2023/07/23 09:57:30;;;;;;;5.65;3.70;;;26.80;83.10;;;;;;6078661;23;20258;-88
2023/07/23 09:59:59;;;;;;;5.07;3.70;;;27.20;84.00;;;;;;6082737;23;20172;-87
2023/07/23 10:02:29;;;;;;;4.05;3.17;;;27.50;83.60;;;;;;6106523;23;20205;-86
2023/07/23 10:04:57;;;;;;;6.13;3.63;;;28.20;81.30;;;;;;6106674;23;20220;-88
2023/07/23 10:07:25;;;;;;;5.53;3.70;;;28.40;78.60;;;;;;6106490;23;20193;-87
2023/07/23 10:09:54;;;;;;;5.13;3.22;;;28.40;80.00;;;;;;6083428;23;20169;-87
2023/07/23 10:12:22;;;;;;;4.85;3.40;;;28.70;79.10;;;;;;6081363;23;20196;-87
2023/07/23 10:14:50;;;;;;;5.90;3.15;;;29.10;79.00;;;;;;6106683;23;20169;-87
2023/07/23 10:17:18;;;;;;;6.47;3.42;;;29.50;75.90;;;;;;6106255;23;20205;-87
2023/07/23 10:19:46;;;;;;;4.82;3.30;;;29.50;75.20;;;;;;6105266;23;20184;-86
2023/07/23 10:22:14;;;;;;;4.22;2.97;;;29.50;73.50;;;;;;6131821;23;20301;-87
2023/07/23 10:24:41;;;;;;;5.25;3.28;;;29.30;73.50;;;;;;6106299;23;20184;-86
2023/07/23 10:27:14;;;;;;;5.18;3.15;;;28.90;73.50;;;;;;6106179;23;20654;-89
2023/07/23 10:30:01;;;;;;;7.00;3.25;;;29.10;73.90;;;;;;6083114;23;20180;-88
2023/07/23 10:32:31;;;;;;;4.15;3.30;;;28.90;72.40;;;;;;6131865;23;20553;-88
2023/07/23 10:34:59;;;;;;;6.78;3.28;;;28.80;72.10;;;;;;6082833;23;20173;-88
2023/07/23 10:37:26;;;;;;;4.05;2.90;;;28.50;73.60;;;;;;6131725;23;20264;-88
2023/07/23 10:39:58;;;;;;;6.65;2.85;;;28.60;73.60;;;;;;6131847;23;20669;-88
2023/07/23 10:42:34;;;;;;;4.60;3.30;;;28.90;73.30;;;;;;6131159;23;20514;-87
2023/07/23 10:45:24;;;;;;;4.75;2.95;;;28.80;72.90;;;;;;6107010;23;20184;-88
2023/07/23 10:48:00;;;;;;;5.15;3.38;;;29.00;74.00;;;;;;6105889;23;20185;-89
2023/07/23 10:50:31;;;;;;;3.70;2.92;;;29.20;73.50;;;;;;6106408;23;20149;-89
2023/07/23 10:53:02;;;;;;;5.22;3.30;;;29.60;72.50;;;;;;6106498;23;20407;-88
2023/07/23 10:55:47;;;;;;;6.25;3.28;;;29.40;71.60;;;;;;6105683;23;20176;-89
2023/07/23 10:58:20;;;;;;;6.55;3.40;;;29.00;72.00;;;;;;6100119;23;20331;-89
2023/07/23 11:00:58;;;;;;;5.28;3.40;;;28.60;73.60;;;;;;6100663;23;20150;-86
2023/07/23 11:03:26;;;;;;;5.28;3.13;;;28.70;73.40;;;;;;6102093;23;20533;-89
2023/07/23 11:05:54;;;;;;;4.88;3.30;;;28.80;73.30;;;;;;6076413;23;20276;-86
2023/07/23 11:08:26;;;;;;;7.85;3.20;;;29.00;72.50;;;;;;6100443;23;20284;-88
2023/07/23 11:10:57;;;;;;;5.55;3.35;;;28.60;72.00;;;;;;6101455;23;20166;-88
2023/07/23 11:13:32;;;;;;;4.97;3.22;;;27.90;72.10;;;;;;6100952;23;20284;-86
2023/07/23 11:16:00;;;;;;;4.53;3.17;;;27.80;73.50;;;;;;6101174;23;20428;-87
2023/07/23 11:18:32;;;;;;;5.07;3.08;;;27.60;73.50;;;;;;6100968;23;20546;-87
2023/07/23 11:21:04;;;;;;;9.23;3.70;;;27.40;73.60;;;;;;6101034;23;20178;-87
2023/07/23 11:23:33;;;;;;;6.53;3.40;;;27.20;74.00;;;;;;6077676;23;20166;-87
2023/07/23 11:26:00;;;;;;;6.60;3.28;;;27.10;74.80;;;;;;6100676;23;20185;-88
2023/07/23 11:28:27;;;;;;;5.72;3.05;;;27.00;75.00;;;;;;6076331;23;20200;-87
2023/07/23 11:30:55;;;;;;;4.88;3.15;;;26.80;75.80;;;;;;6100550;23;20673;-88
2023/07/23 11:33:30;;;;;;;5.55;3.53;;;26.80;75.80;;;;;;6100695;23;20181;-88
2023/07/23 11:36:00;;;;;;;4.38;3.20;;;26.80;75.60;;;;;;6099618;23;20425;-88
2023/07/23 11:38:31;;;;;;;3.90;2.97;;;26.50;75.20;;;;;;6101197;23;20189;-86
2023/07/23 11:40:59;;;;;;;4.18;3.17;;;26.30;76.30;;;;;;6099963;23;20199;-87
2023/07/23 11:43:27;;;;;;;6.00;3.35;;;26.20;76.90;;;;;;6100040;23;20197;-88
2023/07/23 11:45:54;;;;;;;4.68;2.92;;;26.10;77.50;;;;;;6075845;23;20591;-88
2023/07/23 11:48:23;;;;;;;5.43;3.10;;;25.90;78.10;;;;;;6100059;23;20215;-87
2023/07/23 11:50:51;;;;;;;6.13;2.83;;;25.80;78.80;;;;;;6100552;23;20166;-88
2023/07/23 11:53:54;;;;;;;5.35;3.33;;;25.70;78.90;;;;;;6099951;23;20186;-87
2023/07/23 11:56:23;;;;;;;8.55;3.60;;;25.60;79.20;;;;;;6022675;23;20182;-86
2023/07/23 11:58:50;;;;;;;6.72;3.03;;;25.60;79.60;;;;;;6069619;23;20206;-87
2023/07/23 12:01:18;;;;;;;4.40;3.10;;;25.60;79.70;;;;;;6045900;23;20170;-88
2023/07/23 12:03:46;;;;;;;4.93;3.40;;;25.50;80.40;;;;;;6045787;23;20174;-87
2023/07/23 12:06:14;;;;;;;5.80;3.25;;;25.40;80.60;;;;;;6022337;23;20198;-86
2023/07/23 12:08:43;;;;;;;6.28;3.20;;;25.40;81.40;;;;;;6046242;23;20194;-86
2023/07/23 12:11:15;;;;;;;6.55;3.63;;;25.20;82.20;;;;;;6048327;23;20175;-87
2023/07/23 12:13:53;;;;;;;5.22;3.28;;;25.10;84.60;;;;;;6072381;23;20246;-85
2023/07/23 12:16:34;;;;;;;5.55;3.40;;;24.90;89.10;;;;;;6073829;23;20202;-86
2023/07/23 12:19:03;;;;;;;6.13;3.63;;;24.90;86.70;;;;;;6051902;23;20174;-86
2023/07/23 12:21:35;;;;;;;4.68;3.20;;;25.00;87.10;;;;;;6048025;23;20198;-87
2023/07/23 12:24:20;;;;;;;4.30;3.13;;;25.00;86.00;;;;;;6048159;23;20178;-86
2023/07/23 12:27:07;;;;;;;5.82;3.50;;;25.10;87.00;;;;;;6072181;23;20221;-86
2023/07/23 12:29:41;;;;;;;4.82;3.20;;;25.40;89.00;;;;;;6047759;23;20194;-86
2023/07/23 12:32:12;;;;;;;8.25;3.80;;;25.60;87.80;;;;;;6076852;23;20482;-86
2023/07/23 12:34:44;;;;;;;5.20;3.40;;;25.80;87.50;;;;;;6102227;23;20242;-86
2023/07/23 12:37:12;;;;;;;5.53;3.65;;;25.90;85.40;;;;;;6101842;23;20193;-86
2023/07/23 12:39:40;;;;;;;4.85;3.45;;;26.00;86.60;;;;;;6101940;23;20165;-87
2023/07/23 12:42:07;;;;;;;5.07;3.50;;;26.00;85.50;;;;;;6078659;23;20670;-86
2023/07/23 12:44:34;;;;;;;7.03;3.80;;;26.00;85.30;;;;;;6102153;23;20165;-87
2023/07/23 12:47:01;;;;;;;5.93;3.75;;;25.80;84.90;;;;;;6078544;23;20197;-87
2023/07/23 12:49:28;;;;;;;7.18;3.50;;;25.70;85.30;;;;;;6103770;23;20190;-87
2023/07/23 12:51:55;;;;;;;8.52;4.13;;;25.70;86.00;;;;;;6102945;23;20209;-86
2023/07/23 12:54:23;;;;;;;7.22;3.67;;;25.80;85.50;;;;;;6078744;23;20173;-87